»·PEaware :: N4657 KSMX-KSAN

N4657 :: KSMX-KSAN

FLIGHT INFORMATION

Flight Status: Arrived
Operator: Privately registered:
United States
More flights under this callsign
Pilot: Daniel P. (20187)
Aircraft: PILATUS PC-12 EAGLE
(PC12)
More flights by this aircraft type
Origin: KSMX Santa Maria Pub/Capt Hancock
United States
Destination: KSAN San Diego Intl-Lindbergh
United States
More flights between these airports :: More routes between these airports
Route: RZS VTU V208 SXC V208 LAX118 CARDI MZB320 MZB
File this flight plan on PilotEdge
Remarks: Tec Route SBAP66
Altitude:
(Current/Filed)
80ft
Speed:
(Current/Filed)
190kts
Departed: 15-Sep-18 12:32 PM
Arrived: 15-Sep-18 01:46 PM
Distance/Time
Traveled:
208nm/1:14
Distance/Time
To Go:
Arrived

Flight Plot

Page will automatically refresh every two minutes.


Map Options




Map Legend


Flown Route
Filed Route
Departure Airport
Arrival Airport
Navaid (VOR, NDB)
Fix

Horizontal Profiles

Position Reports

Time Latitude Longitude Heading Altitude Ground
Speed
15-Sep-18 11:41 34.890674 -120.450690 1 265ft 0kts
15-Sep-18 11:42 34.890674 -120.450690 1 265ft 0kts
15-Sep-18 11:43 34.890675 -120.450689 1 265ft 0kts
15-Sep-18 11:44 34.890675 -120.450689 1 265ft 0kts
15-Sep-18 11:45 34.890675 -120.450689 1 265ft 0kts
15-Sep-18 11:46 34.890675 -120.450689 1 265ft 0kts
15-Sep-18 11:47 34.890675 -120.450689 1 265ft 0kts
15-Sep-18 11:48 34.890675 -120.450689 1 265ft 0kts
15-Sep-18 11:49 34.890675 -120.450689 1 265ft 0kts
15-Sep-18 11:50 34.890675 -120.450689 1 265ft 0kts
15-Sep-18 11:51 34.890675 -120.450689 1 265ft 0kts
15-Sep-18 11:52 34.890675 -120.450689 1 265ft 0kts
15-Sep-18 11:53 34.890675 -120.450689 1 265ft 0kts
15-Sep-18 11:54 34.890675 -120.450689 1 265ft 0kts
15-Sep-18 11:55 34.890675 -120.450689 1 265ft 0kts
15-Sep-18 11:56 34.890675 -120.450689 1 265ft 0kts
15-Sep-18 11:57 34.890675 -120.450689 1 265ft 0kts
15-Sep-18 11:58 34.890675 -120.450689 1 265ft 0kts
15-Sep-18 11:59 34.890675 -120.450689 1 265ft 0kts
15-Sep-18 12:00 34.890675 -120.450689 1 265ft 0kts
15-Sep-18 12:01 34.890675 -120.450689 1 265ft 0kts
15-Sep-18 12:02 34.890675 -120.450689 1 265ft 0kts
15-Sep-18 12:03 34.890675 -120.450689 1 265ft 0kts
15-Sep-18 12:04 34.890675 -120.450689 1 265ft 0kts
15-Sep-18 12:05 34.890675 -120.450689 1 265ft 0kts
15-Sep-18 12:06 34.890675 -120.450689 1 265ft 0kts
15-Sep-18 12:07 34.890675 -120.450689 1 265ft 0kts
15-Sep-18 12:08 34.890675 -120.450689 1 265ft 0kts
15-Sep-18 12:09 34.890675 -120.450689 1 265ft 0kts
15-Sep-18 12:10 34.890675 -120.450689 1 265ft 0kts
15-Sep-18 12:11 34.890675 -120.450689 1 265ft 0kts
15-Sep-18 12:12 34.890675 -120.450689 1 265ft 0kts
15-Sep-18 12:13 34.890675 -120.450689 1 265ft 0kts
15-Sep-18 12:14 34.890675 -120.450689 1 265ft 0kts
15-Sep-18 12:15 34.890675 -120.450689 1 265ft 0kts
15-Sep-18 12:16 34.890675 -120.450689 1 265ft 0kts
15-Sep-18 12:17 34.890675 -120.450689 1 265ft 0kts
15-Sep-18 12:18 34.890675 -120.450689 1 265ft 0kts
15-Sep-18 12:19 34.890675 -120.450689 1 265ft 0kts
15-Sep-18 12:20 34.890675 -120.450689 1 265ft 0kts
15-Sep-18 12:21 34.890675 -120.450689 1 265ft 0kts
15-Sep-18 12:22 34.890675 -120.450689 1 265ft 0kts
15-Sep-18 12:23 34.890675 -120.450689 1 265ft 0kts
15-Sep-18 12:24 34.890675 -120.450689 1 265ft 0kts
15-Sep-18 12:25 34.890675 -120.450689 1 265ft 0kts
15-Sep-18 12:26 34.890675 -120.450689 1 265ft 0kts
15-Sep-18 12:27 34.890675 -120.450689 1 265ft 0kts
15-Sep-18 12:28 34.890675 -120.450689 1 265ft 0kts
15-Sep-18 12:29 34.891500 -120.448989 90 265ft 14kts
15-Sep-18 12:30 34.891844 -120.446168 45 265ft 0kts
15-Sep-18 12:31 34.891844 -120.446168 45 265ft 0kts
15-Sep-18 12:32 34.891844 -120.446168 45 265ft 0kts
15-Sep-18 12:33 34.892730 -120.445757 310 265ft 5kts
15-Sep-18 12:34 34.902125 -120.456881 314 513ft 109kts
15-Sep-18 12:35 34.922880 -120.458342 59 2064ft 118kts
15-Sep-18 12:36 34.909244 -120.405902 112 3381ft 180kts
15-Sep-18 12:37 34.890005 -120.354700 135 4388ft 214kts
15-Sep-18 12:38 34.829715 -120.309422 152 5789ft 222kts
15-Sep-18 12:39 34.786547 -120.277648 152 7001ft 214kts
15-Sep-18 12:40 34.726762 -120.232864 152 8004ft 232kts
15-Sep-18 12:41 34.672527 -120.189382 144 8673ft 227kts
15-Sep-18 12:42 34.637183 -120.139972 135 9003ft 241kts
15-Sep-18 12:43 34.591737 -120.078275 135 9002ft 248kts
15-Sep-18 12:44 34.548506 -120.018817 134 9000ft 222kts
15-Sep-18 12:45 34.509757 -119.962883 136 8992ft 213kts
15-Sep-18 12:46 34.476519 -119.904117 132 8987ft 212kts
15-Sep-18 12:47 34.440005 -119.848547 134 8978ft 210kts
15-Sep-18 12:48 34.401528 -119.795535 137 8975ft 209kts
15-Sep-18 12:49 34.361872 -119.744184 137 8975ft 208kts
15-Sep-18 12:50 34.320960 -119.691452 137 8977ft 227kts
15-Sep-18 12:51 34.276670 -119.634432 137 8975ft 234kts
15-Sep-18 12:52 34.231825 -119.576785 137 8975ft 236kts
15-Sep-18 12:53 34.186945 -119.519187 137 8975ft 237kts
15-Sep-18 12:54 34.141551 -119.461051 137 8975ft 239kts
15-Sep-18 12:55 34.095461 -119.402130 137 8975ft 242kts
15-Sep-18 12:56 34.051056 -119.345448 137 8975ft 243kts
15-Sep-18 12:57 34.005191 -119.286991 137 8973ft 242kts
15-Sep-18 12:58 33.959013 -119.228247 137 8972ft 242kts
15-Sep-18 12:59 33.912808 -119.169551 138 8972ft 242kts
15-Sep-18 13:00 33.866625 -119.110990 138 8976ft 241kts
15-Sep-18 13:01 33.820485 -119.052583 138 8976ft 241kts
15-Sep-18 13:02 33.775374 -118.992735 134 8976ft 242kts
15-Sep-18 13:03 33.732501 -118.930863 135 8976ft 241kts
15-Sep-18 13:04 33.689541 -118.869018 135 8976ft 241kts
15-Sep-18 13:05 33.646796 -118.807593 135 8977ft 240kts
15-Sep-18 13:06 33.603981 -118.746216 136 8964ft 240kts
15-Sep-18 13:07 33.561030 -118.684733 135 8951ft 241kts
15-Sep-18 13:08 33.517913 -118.623095 135 8965ft 241kts
15-Sep-18 13:09 33.474712 -118.561440 135 8983ft 241kts
15-Sep-18 13:10 33.431616 -118.500034 135 9003ft 241kts
15-Sep-18 13:11 33.388585 -118.438811 135 9003ft 241kts
15-Sep-18 13:12 33.367308 -118.361873 102 9004ft 255kts
15-Sep-18 13:13 33.356984 -118.280195 103 8995ft 254kts
15-Sep-18 13:14 33.346043 -118.196828 103 8984ft 254kts
15-Sep-18 13:15 33.335062 -118.113584 103 9046ft 251kts
15-Sep-18 13:16 33.324047 -118.030762 103 9042ft 253kts
15-Sep-18 13:17 33.312926 -117.947462 104 9025ft 254kts
15-Sep-18 13:18 33.301773 -117.864353 104 9004ft 254kts
15-Sep-18 13:19 33.290561 -117.781218 104 8993ft 253kts
15-Sep-18 13:20 33.278645 -117.698632 105 8994ft 252kts
15-Sep-18 13:21 33.266220 -117.616425 105 8994ft 251kts
15-Sep-18 13:22 33.236858 -117.546504 139 8994ft 235kts
15-Sep-18 13:23 33.191474 -117.490254 139 8994ft 236kts
15-Sep-18 13:24 33.145995 -117.433520 139 8985ft 237kts
15-Sep-18 13:25 33.093189 -117.397483 161 8984ft 210kts
15-Sep-18 13:26 33.041281 -117.368781 160 8984ft 201kts
15-Sep-18 13:27 32.992563 -117.341723 161 8980ft 190kts
15-Sep-18 13:28 32.945066 -117.315376 161 8981ft 187kts
15-Sep-18 13:29 32.898180 -117.289401 162 8988ft 188kts
15-Sep-18 13:30 32.850584 -117.263075 162 8996ft 190kts
15-Sep-18 13:31 32.802400 -117.236452 162 8999ft 193kts
15-Sep-18 13:32 32.768718 -117.190826 92 9005ft 226kts
15-Sep-18 13:33 32.771979 -117.125668 91 8411ft 174kts
15-Sep-18 13:34 32.768514 -117.069989 101 7495ft 167kts
15-Sep-18 13:35 32.762536 -117.012599 101 6422ft 192kts
15-Sep-18 13:36 32.754078 -116.947275 101 5332ft 204kts
15-Sep-18 13:37 32.744869 -116.884803 101 4966ft 178kts
15-Sep-18 13:38 32.729964 -116.833543 163 4980ft 158kts
15-Sep-18 13:39 32.703391 -116.867459 251 4724ft 170kts
15-Sep-18 13:40 32.687526 -116.919875 251 4028ft 165kts
15-Sep-18 13:41 32.679806 -116.967236 284 3976ft 135kts
15-Sep-18 13:42 32.689421 -117.008599 286 3274ft 130kts
15-Sep-18 13:43 32.699392 -117.049643 286 2578ft 132kts
15-Sep-18 13:44 32.708764 -117.088005 287 1918ft 97kts
15-Sep-18 13:45 32.715766 -117.116543 287 1326ft 89kts
15-Sep-18 13:46 32.722599 -117.144554 287 731ft 83kts
15-Sep-18 13:47 32.728988 -117.171121 286 291ft 80kts
15-Sep-18 13:48 32.733765 -117.190471 282 17ft 21kts
15-Sep-18 13:49 32.733293 -117.191573 182 17ft 0kts
15-Sep-18 13:50 32.733293 -117.191573 182 17ft 0kts
15-Sep-18 13:51 32.732189 -117.190638 213 15ft 14kts
15-Sep-18 13:52 32.731377 -117.190392 112 14ft 0kts
15-Sep-18 13:53 32.731377 -117.190392 112 14ft 0kts
15-Sep-18 13:54 32.731377 -117.190392 112 14ft 0kts

Navigation Log

Ident Type
Flight plan parsing failed, navigation log unavailable